Dalton, Ohio
Current Conditions -  °F | °C
As of 5:40 AM on Monday 26 Jan 2015 (Local Time) from KBJJ Reporting Station
Light Snow Light Snow  
Wind Chill:   Ceiling: 2700
Heat Index: 18°   Visibility: 2mi
Dew Point: 15°   Wind: 13mph
Humidity: 88%   Direction: 10°N
Pressure: 29.76"   Gusts: NA
Location:  40.8°N, 81.7°W
Report Text: KBJJ 261040Z AUTO 01011KT 2SM -SN BR OVC027 M08/M09 A2976 RMK AO2 P0000 T10781094 TSNO
Loading
Personal Weather Stations






























Interactive Weather Map New forecast layout! Learn more

10-Day Weather Forecast

Advertisements
Track Severe Weather on mobile